createdAt,value
2018-02-27T00:01:59.397Z,13.80
2018-02-27T00:04:26.987Z,13.85
2018-02-27T00:06:53.807Z,12.57
2018-02-27T00:09:21.386Z,12.68
2018-02-27T00:11:48.238Z,14.95
2018-02-27T00:14:15.089Z,13.10
2018-02-27T00:16:41.978Z,13.82
2018-02-27T00:19:09.537Z,11.20
2018-02-27T00:21:37.134Z,13.52
2018-02-27T00:24:04.674Z,12.52
2018-02-27T00:26:31.510Z,12.90
2018-02-27T00:28:59.131Z,12.65
2018-02-27T00:31:25.975Z,14.70
2018-02-27T00:33:52.825Z,13.15
2018-02-27T00:36:19.718Z,15.82
2018-02-27T00:38:46.549Z,14.63
2018-02-27T00:41:14.134Z,12.23
2018-02-27T00:43:40.980Z,12.98
2018-02-27T00:46:07.834Z,13.25
2018-02-27T00:48:34.677Z,14.18
2018-02-27T00:51:01.510Z,12.98
2018-02-27T00:53:28.359Z,13.20
2018-02-27T00:55:55.186Z,13.82
2018-02-27T00:58:22.041Z,12.23
2018-02-27T01:00:48.902Z,14.18
2018-02-27T01:03:15.729Z,12.73
2018-02-27T01:05:42.600Z,13.32
2018-02-27T01:08:09.455Z,13.60
2018-02-27T01:10:36.296Z,12.93
2018-02-27T01:13:03.114Z,13.30
2018-02-27T01:15:29.909Z,14.07
2018-02-27T01:17:57.482Z,13.45
2018-02-27T01:20:24.342Z,15.05
2018-02-27T01:22:51.153Z,13.65
2018-02-27T01:25:17.950Z,13.07
2018-02-27T01:27:44.832Z,13.65
2018-02-27T01:30:12.409Z,14.95
2018-02-27T01:32:39.228Z,14.55
2018-02-27T01:35:06.101Z,15.85
2018-02-27T01:37:32.957Z,13.40
2018-02-27T01:39:59.815Z,16.17
2018-02-27T01:42:26.650Z,14.38
2018-02-27T01:44:53.503Z,13.93
2018-02-27T01:47:20.342Z,14.40
2018-02-27T01:49:47.195Z,15.25
2018-02-27T01:52:14.045Z,15.52
2018-02-27T01:54:40.869Z,14.87
2018-02-27T01:57:07.743Z,14.02
2018-02-27T01:59:34.609Z,16.12
2018-02-27T02:02:02.170Z,15.65
2018-02-27T02:04:29.022Z,16.80
2018-02-27T02:06:55.870Z,13.98
2018-02-27T02:09:22.714Z,16.05
2018-02-27T02:11:49.543Z,14.80
2018-02-27T02:14:16.354Z,16.90
2018-02-27T02:16:43.228Z,14.18
2018-02-27T02:19:10.086Z,15.32
2018-02-27T02:21:37.623Z,17.35
2018-02-27T02:24:04.438Z,16.48
2018-02-27T02:26:31.286Z,15.50
2018-02-27T02:28:58.871Z,16.73
2018-02-27T02:31:25.698Z,13.82
2018-02-27T02:33:53.294Z,14.10
2018-02-27T02:36:20.146Z,17.42
2018-02-27T02:38:46.965Z,16.20
2018-02-27T02:41:13.790Z,16.08
2018-02-27T02:43:41.382Z,16.70
2018-02-27T02:46:08.242Z,15.13
2018-02-27T02:48:35.050Z,15.70
2018-02-27T02:51:02.646Z,15.52
2018-02-27T02:53:29.473Z,14.65
2018-02-27T02:55:56.337Z,15.18
2018-02-27T02:58:23.169Z,15.68
2018-02-27T03:00:50.022Z,15.05
2018-02-27T03:03:16.860Z,17.35
2018-02-27T03:05:43.694Z,16.83
2018-02-27T03:08:10.502Z,15.90
2018-02-27T03:10:37.350Z,18.50
2018-02-27T03:13:04.177Z,14.93
2018-02-27T03:15:31.045Z,16.80
2018-02-27T03:17:57.913Z,18.25
2018-02-27T03:20:25.494Z,15.27
2018-02-27T03:22:52.324Z,15.48
2018-02-27T03:25:19.158Z,17.87
2018-02-27T03:27:46.010Z,17.42
2018-02-27T03:30:12.870Z,15.85
2018-02-27T03:32:39.694Z,17.52
2018-02-27T03:35:06.515Z,14.65
2018-02-27T03:37:33.398Z,15.43
2018-02-27T03:40:00.217Z,17.02
2018-02-27T03:42:27.038Z,14.60
2018-02-27T03:44:53.898Z,15.63
2018-02-27T03:47:20.742Z,18.58
2018-02-27T03:49:47.583Z,16.33
2018-02-27T03:52:14.453Z,15.60
2018-02-27T03:54:41.256Z,16.42
2018-02-27T03:57:08.120Z,14.25
2018-02-27T03:59:34.981Z,15.70
2018-02-27T04:02:01.816Z,16.73
2018-02-27T04:04:28.659Z,15.35
2018-02-27T04:06:55.498Z,15.25
2018-02-27T04:09:22.334Z,17.48
2018-02-27T04:11:49.168Z,16.37
2018-02-27T04:14:16.060Z,17.42
2018-02-27T04:16:42.936Z,15.10
2018-02-27T04:19:09.725Z,16.50
2018-02-27T04:21:36.577Z,14.75
2018-02-27T04:24:04.154Z,16.08
2018-02-27T04:26:30.995Z,16.00
2018-02-27T04:28:57.842Z,14.70
2018-02-27T04:31:24.666Z,15.75
2018-02-27T04:33:52.266Z,16.92
2018-02-27T04:36:19.103Z,15.75
2018-02-27T04:38:45.966Z,14.15
2018-02-27T04:41:12.798Z,16.98
2018-02-27T04:43:39.631Z,15.25
2018-02-27T04:46:06.534Z,16.30
2018-02-27T04:48:33.346Z,15.75
2018-02-27T04:51:00.158Z,16.23
2018-02-27T04:53:27.001Z,15.30
2018-02-27T04:55:53.805Z,15.20
2018-02-27T04:58:20.646Z,16.85
2018-02-27T05:00:47.502Z,15.85
2018-02-27T05:03:14.299Z,18.95
2018-02-27T05:05:41.134Z,16.20
2018-02-27T05:08:07.981Z,15.73
2018-02-27T05:10:34.832Z,14.80
2018-02-27T05:13:01.634Z,15.68
2018-02-27T05:15:28.526Z,15.18
2018-02-27T05:17:55.394Z,16.83
2018-02-27T05:20:23.011Z,17.23
2018-02-27T05:22:49.919Z,14.65
2018-02-27T05:25:16.757Z,16.87
2018-02-27T05:27:44.363Z,19.87
2018-02-27T05:30:11.189Z,15.73
2018-02-27T05:32:38.822Z,16.87
2018-02-27T05:35:05.741Z,17.05
2018-02-27T05:37:32.562Z,15.30
2018-02-27T05:39:59.382Z,14.55
2018-02-27T05:42:26.254Z,17.80
2018-02-27T05:44:53.074Z,16.60
2018-02-27T05:47:19.916Z,17.15
2018-02-27T05:49:46.782Z,17.95
2018-02-27T05:52:14.361Z,15.52
2018-02-27T05:54:41.926Z,17.45
2018-02-27T05:57:09.598Z,17.58
2018-02-27T05:59:36.450Z,15.68
2018-02-27T06:02:03.284Z,15.82
2018-02-27T06:04:30.902Z,15.80
2018-02-27T06:06:57.742Z,16.92
2018-02-27T06:09:24.557Z,17.62
2018-02-27T06:11:51.411Z,15.23
2018-02-27T06:14:18.260Z,16.87
2018-02-27T06:16:45.154Z,15.95
2018-02-27T06:19:12.019Z,17.00
2018-02-27T06:21:38.843Z,16.77
2018-02-27T06:24:05.673Z,16.62
2018-02-27T06:26:32.526Z,16.40
2018-02-27T06:28:59.387Z,17.55
2018-02-27T06:31:26.210Z,15.95
2018-02-27T06:33:53.803Z,16.85
2018-02-27T06:36:20.631Z,18.10
2018-02-27T06:38:47.514Z,17.25
2018-02-27T06:41:14.329Z,16.92
2018-02-27T06:43:41.261Z,18.00
2018-02-27T06:46:08.098Z,16.48
2018-02-27T06:48:35.652Z,17.60
2018-02-27T06:51:02.530Z,16.42
2018-02-27T06:53:29.446Z,16.77
2018-02-27T06:55:56.336Z,17.85
2018-02-27T06:58:23.198Z,16.90
2018-02-27T07:00:50.015Z,18.73
2018-02-27T07:03:16.833Z,17.25
2018-02-27T07:05:43.698Z,18.73
2018-02-27T07:08:10.530Z,16.60
2018-02-27T07:10:37.406Z,17.98
2018-02-27T07:13:04.329Z,17.08
2018-02-27T07:15:31.151Z,19.02
2018-02-27T07:17:57.977Z,17.90
2018-02-27T07:20:24.829Z,16.55
2018-02-27T07:22:51.702Z,16.42
2018-02-27T07:25:18.572Z,17.73
2018-02-27T07:27:45.437Z,16.08
2018-02-27T07:30:12.372Z,16.48
2018-02-27T07:32:39.166Z,17.45
2018-02-27T07:35:05.995Z,18.05
2018-02-27T07:37:32.879Z,19.33
2018-02-27T07:39:59.670Z,15.70
2018-02-27T07:42:26.536Z,18.12
2018-02-27T07:44:53.398Z,18.27
2018-02-27T07:47:20.301Z,15.68
2018-02-27T07:49:47.871Z,16.60
2018-02-27T07:52:14.687Z,18.83
2018-02-27T07:54:42.274Z,16.25
2018-02-27T07:57:09.146Z,18.92
2018-02-27T07:59:36.698Z,16.48
2018-02-27T08:02:03.573Z,16.87
2018-02-27T08:04:30.389Z,17.27
2018-02-27T08:06:57.241Z,18.73
2018-02-27T08:09:24.110Z,17.92
2018-02-27T08:11:51.679Z,17.12
2018-02-27T08:14:18.499Z,18.20
2018-02-27T08:16:46.133Z,16.60
2018-02-27T08:19:12.998Z,17.95
2018-02-27T08:21:39.841Z,16.92
2018-02-27T08:24:06.716Z,19.55
2018-02-27T08:26:33.503Z,17.55
2018-02-27T08:29:00.342Z,16.42
2018-02-27T08:31:27.170Z,18.87
2018-02-27T08:33:54.006Z,16.20
2018-02-27T08:36:20.875Z,19.92
2018-02-27T08:38:47.686Z,16.02
2018-02-27T08:41:14.513Z,19.05
2018-02-27T08:43:41.402Z,17.25
2018-02-27T08:46:08.241Z,18.27
2018-02-27T08:48:35.803Z,17.35
2018-02-27T08:51:02.659Z,17.52
2018-02-27T08:53:29.482Z,19.27
2018-02-27T08:55:56.332Z,17.98
2018-02-27T08:58:23.190Z,19.75
2018-02-27T09:00:50.072Z,17.60
2018-02-27T09:03:16.941Z,20.17
2018-02-27T09:05:43.815Z,20.10
2018-02-27T09:08:10.640Z,20.12
2018-02-27T09:10:37.486Z,19.50
2018-02-27T09:13:04.389Z,17.60
2018-02-27T09:15:31.219Z,19.55
2018-02-27T09:17:58.478Z,20.77
2018-02-27T09:20:26.148Z,19.35
2018-02-27T09:22:52.942Z,17.85
2018-02-27T09:25:19.799Z,18.87
2018-02-27T09:27:47.562Z,19.30
2018-02-27T09:30:14.418Z,19.95
2018-02-27T09:32:41.930Z,19.55
2018-02-27T09:35:08.796Z,17.42
2018-02-27T09:37:36.594Z,19.60
2018-02-27T09:40:03.436Z,19.55
2018-02-27T09:42:32.071Z,19.65
2018-02-27T09:44:59.242Z,18.98
2018-02-27T09:47:26.117Z,17.10
2018-02-27T09:49:53.677Z,19.27
2018-02-27T09:52:20.494Z,18.92
2018-02-27T09:54:47.329Z,17.75
2018-02-27T09:57:14.918Z,17.52
2018-02-27T09:59:41.810Z,18.75
2018-02-27T10:02:08.634Z,19.45
2018-02-27T10:04:35.514Z,17.60
2018-02-27T10:07:02.586Z,18.92
2018-02-27T10:09:29.502Z,19.10
2018-02-27T10:11:56.434Z,19.00
2018-02-27T10:14:23.254Z,19.50
2018-02-27T10:16:50.154Z,18.87
2018-02-27T10:19:16.990Z,20.02
2018-02-27T10:21:43.890Z,17.25
2018-02-27T10:24:10.838Z,16.45
2018-02-27T10:26:37.664Z,20.08
2018-02-27T10:29:05.210Z,18.95
2018-02-27T10:31:32.791Z,17.70
2018-02-27T10:33:59.624Z,20.05
2018-02-27T10:36:27.206Z,19.77
2018-02-27T10:38:54.054Z,20.05
2018-02-27T10:41:20.886Z,20.23
2018-02-27T10:43:47.709Z,18.98
2018-02-27T10:46:14.571Z,19.75
2018-02-27T10:48:41.421Z,20.25
2018-02-27T10:51:08.237Z,19.20
2018-02-27T10:53:35.061Z,18.73
2018-02-27T10:56:02.652Z,18.10
2018-02-27T10:58:29.478Z,17.58
2018-02-27T11:00:57.206Z,17.42
2018-02-27T11:03:24.243Z,19.55
2018-02-27T11:05:51.311Z,19.15
2018-02-27T11:08:18.325Z,18.80
2018-02-27T11:10:46.026Z,18.35
2018-02-27T11:13:13.004Z,18.08
2018-02-27T11:15:40.006Z,17.23
2018-02-27T11:18:06.966Z,18.87
2018-02-27T11:20:33.868Z,18.52
2018-02-27T11:23:00.768Z,16.23
2018-02-27T11:25:27.873Z,17.17
2018-02-27T11:27:54.843Z,17.10
2018-02-27T11:30:21.843Z,19.70
2018-02-27T11:32:49.686Z,18.48
2018-02-27T11:35:16.630Z,18.85
2018-02-27T11:37:43.598Z,18.65
2018-02-27T11:40:10.742Z,19.90
2018-02-27T11:42:37.809Z,21.48
2018-02-27T11:45:04.854Z,19.80
2018-02-27T11:47:32.607Z,21.95
2018-02-27T11:50:00.456Z,22.83
2018-02-27T11:52:27.485Z,20.35
2018-02-27T11:54:54.423Z,19.85
2018-02-27T11:57:22.238Z,20.40
2018-02-27T11:59:49.135Z,20.12
2018-02-27T12:02:16.131Z,19.08
2018-02-27T12:04:43.226Z,18.17
2018-02-27T12:07:10.150Z,18.40
2018-02-27T12:09:37.821Z,19.35
2018-02-27T12:12:04.726Z,18.83
2018-02-27T12:14:32.462Z,20.95
2018-02-27T12:17:00.483Z,18.48
2018-02-27T12:19:27.481Z,20.88
2018-02-27T12:21:56.411Z,22.67
2018-02-27T12:24:24.027Z,20.48
2018-02-27T12:26:50.991Z,21.10
2018-02-27T12:29:18.912Z,22.58
2018-02-27T12:31:45.964Z,24.75
2018-02-27T12:34:16.001Z,26.10
2018-02-27T12:36:42.943Z,23.85
2018-02-27T12:39:10.003Z,24.60
2018-02-27T12:41:36.974Z,29.52
2018-02-27T12:44:03.990Z,27.05
2018-02-27T12:46:31.789Z,28.52
2018-02-27T12:48:58.728Z,25.58
2018-02-27T12:51:26.566Z,30.45
2018-02-27T12:53:53.439Z,28.50
2018-02-27T12:56:20.454Z,30.52
2018-02-27T12:58:47.451Z,31.48
2018-02-27T13:01:15.264Z,28.55
2018-02-27T13:03:43.774Z,29.25
2018-02-27T13:06:10.754Z,29.83
2018-02-27T13:08:38.647Z,27.73
2018-02-27T13:11:05.608Z,29.20
2018-02-27T13:13:32.657Z,31.87
2018-02-27T13:15:59.678Z,30.25
2018-02-27T13:18:26.691Z,30.62
2018-02-27T13:20:53.672Z,28.73
2018-02-27T13:23:20.632Z,30.02
2018-02-27T13:25:47.584Z,30.67
2018-02-27T13:28:14.649Z,28.48
2018-02-27T13:30:41.533Z,25.52
2018-02-27T13:33:08.431Z,27.80
2018-02-27T13:35:35.452Z,28.40
2018-02-27T13:38:02.600Z,26.87
2018-02-27T13:40:29.510Z,26.23
2018-02-27T13:42:56.571Z,26.20
2018-02-27T13:45:24.188Z,26.20
2018-02-27T13:47:51.849Z,26.00
2018-02-27T13:50:18.887Z,33.17
2018-02-27T13:52:45.870Z,28.45
2018-02-27T13:55:12.872Z,28.70
2018-02-27T13:57:39.915Z,24.25
2018-02-27T14:00:06.887Z,27.52
2018-02-27T14:02:33.875Z,25.23
2018-02-27T14:05:00.856Z,27.30
2018-02-27T14:07:29.254Z,23.08
2018-02-27T14:09:56.198Z,27.48
2018-02-27T14:12:23.056Z,24.35
2018-02-27T14:14:49.954Z,27.52
2018-02-27T14:17:16.880Z,23.67
2018-02-27T14:19:43.721Z,25.00
2018-02-27T14:22:10.526Z,27.73
2018-02-27T14:24:37.443Z,26.45
2018-02-27T14:27:04.351Z,25.27
2018-02-27T14:29:32.631Z,25.65
2018-02-27T14:31:59.658Z,22.17
2018-02-27T14:34:27.507Z,27.20
2018-02-27T14:36:54.562Z,25.35
2018-02-27T14:39:22.410Z,22.92
2018-02-27T14:41:49.443Z,24.77
2018-02-27T14:44:16.598Z,24.95
2018-02-27T14:46:43.596Z,25.05
2018-02-27T14:49:10.458Z,22.23
2018-02-27T14:51:37.534Z,29.60
2018-02-27T14:54:05.346Z,24.73
2018-02-27T14:56:33.055Z,24.73
2018-02-27T14:59:00.008Z,23.75
2018-02-27T15:01:26.974Z,23.00
2018-02-27T15:03:54.646Z,28.48
2018-02-27T15:06:22.525Z,27.65
2018-02-27T15:08:49.405Z,25.58
2018-02-27T15:11:16.410Z,22.27
2018-02-27T15:13:45.685Z,23.52
2018-02-27T15:16:12.859Z,26.50
2018-02-27T15:18:40.358Z,25.00
2018-02-27T15:21:07.394Z,24.37
2018-02-27T15:23:35.204Z,21.27
2018-02-27T15:26:03.174Z,20.88
2018-02-27T15:28:30.083Z,21.42
2018-02-27T15:30:57.886Z,19.85
2018-02-27T15:33:25.498Z,19.77
2018-02-27T15:35:54.151Z,21.30
2018-02-27T15:38:22.461Z,21.05
2018-02-27T15:40:50.087Z,21.17
2018-02-27T15:43:17.651Z,22.55
2018-02-27T15:45:45.559Z,19.48
2018-02-27T15:48:12.534Z,23.55
2018-02-27T15:50:40.179Z,22.00
2018-02-27T15:53:08.146Z,20.33
2018-02-27T15:55:35.191Z,23.83
2018-02-27T15:58:02.198Z,23.15
2018-02-27T16:00:34.699Z,25.33
2018-02-27T16:03:01.571Z,22.92
2018-02-27T16:05:28.587Z,25.77
2018-02-27T16:07:55.644Z,22.70
2018-02-27T16:10:22.652Z,22.40
2018-02-27T16:12:49.670Z,23.20
2018-02-27T16:15:16.646Z,22.15
2018-02-27T16:17:43.705Z,22.30
2018-02-27T16:20:10.698Z,21.20
2018-02-27T16:22:38.400Z,23.45
2018-02-27T16:25:05.422Z,21.60
2018-02-27T16:27:32.474Z,22.02
2018-02-27T16:30:00.343Z,22.65
2018-02-27T16:32:28.034Z,22.67
2018-02-27T16:34:55.043Z,21.75
2018-02-27T16:37:22.758Z,21.12
2018-02-27T16:39:50.509Z,23.25
2018-02-27T16:42:17.486Z,23.65
2018-02-27T16:44:44.525Z,24.08
2018-02-27T16:47:11.394Z,25.10
2018-02-27T16:49:38.554Z,22.77
2018-02-27T16:52:05.606Z,22.70
2018-02-27T16:54:32.546Z,22.83
2018-02-27T16:57:00.655Z,23.02
2018-02-27T16:59:27.705Z,24.92
2018-02-27T17:01:54.603Z,22.27
2018-02-27T17:04:23.299Z,23.42
2018-02-27T17:06:51.111Z,26.05
2018-02-27T17:09:20.126Z,23.12
2018-02-27T17:11:47.062Z,22.17
2018-02-27T17:14:14.818Z,21.83
2018-02-27T17:16:41.910Z,23.85
2018-02-27T17:19:08.970Z,23.50
2018-02-27T17:21:36.039Z,23.33
2018-02-27T17:24:03.026Z,25.62
2018-02-27T17:26:30.054Z,22.77
2018-02-27T17:28:56.998Z,20.50
2018-02-27T17:31:23.814Z,25.25
2018-02-27T17:33:50.737Z,27.92
2018-02-27T17:36:18.318Z,26.80
2018-02-27T17:38:45.874Z,24.52
2018-02-27T17:41:13.556Z,23.90
2018-02-27T17:43:40.410Z,28.50
2018-02-27T17:46:07.458Z,26.20
2018-02-27T17:48:35.274Z,23.83
2018-02-27T17:51:02.999Z,26.80
2018-02-27T17:53:29.949Z,30.48
2018-02-27T17:55:56.867Z,27.92
2018-02-27T17:58:23.894Z,25.15
2018-02-27T18:00:51.711Z,26.05
2018-02-27T18:03:18.691Z,27.08
2018-02-27T18:05:45.518Z,27.00
2018-02-27T18:08:12.583Z,25.48
2018-02-27T18:10:40.185Z,22.37
2018-02-27T18:13:07.257Z,26.00
2018-02-27T18:15:34.854Z,26.48
2018-02-27T18:18:02.571Z,26.27
2018-02-27T18:20:29.486Z,26.92
2018-02-27T18:22:56.646Z,25.62
2018-02-27T18:25:23.584Z,29.45
2018-02-27T18:27:50.762Z,30.52
2018-02-27T18:30:17.737Z,26.52
2018-02-27T18:32:45.302Z,30.73
2018-02-27T18:35:12.278Z,29.80
2018-02-27T18:37:39.300Z,31.30
2018-02-27T18:40:06.890Z,28.60
2018-02-27T18:42:34.000Z,29.80
2018-02-27T18:45:02.884Z,30.23
2018-02-27T18:47:29.839Z,29.02
2018-02-27T18:49:56.858Z,28.42
2018-02-27T18:52:24.449Z,28.45
2018-02-27T18:54:55.394Z,30.65
2018-02-27T18:57:22.983Z,29.42
2018-02-27T18:59:49.833Z,30.52
2018-02-27T19:02:21.019Z,28.60
2018-02-27T19:04:57.409Z,33.42
2018-02-27T19:07:31.253Z,29.85
2018-02-27T19:09:58.894Z,30.52
2018-02-27T19:12:25.967Z,26.58
2018-02-27T19:14:56.017Z,30.37
2018-02-27T19:17:24.007Z,31.90
2018-02-27T19:19:54.070Z,33.83
2018-02-27T19:22:20.979Z,34.13
2018-02-27T19:24:48.052Z,32.05
2018-02-27T19:27:15.979Z,33.10
2018-02-27T19:29:42.960Z,28.83
2018-02-27T19:32:10.787Z,31.73
2018-02-27T19:37:33.607Z,28.92
2018-02-27T19:40:00.602Z,30.90
2018-02-27T19:42:27.567Z,32.30
2018-02-27T19:44:55.591Z,34.80
2018-02-27T19:47:22.721Z,37.55
2018-02-27T19:49:50.470Z,33.60
2018-02-27T19:52:17.818Z,34.42
2018-02-27T19:54:48.966Z,35.90
2018-02-27T19:57:16.850Z,35.10
2018-02-27T19:59:44.031Z,32.40
2018-02-27T20:02:11.187Z,30.33
2018-02-27T20:04:38.147Z,35.70
2018-02-27T20:09:46.338Z,28.77
2018-02-27T20:12:13.579Z,30.62
2018-02-27T20:14:40.602Z,31.83
2018-02-27T20:17:07.550Z,30.52
2018-02-27T20:19:34.411Z,33.22
2018-02-27T20:22:01.230Z,32.00
2018-02-27T20:24:29.067Z,35.67
2018-02-27T20:26:56.274Z,36.92
2018-02-27T20:29:23.236Z,38.00
2018-02-27T20:31:50.296Z,39.92
2018-02-27T20:34:17.126Z,39.25
2018-02-27T20:36:44.282Z,37.67
2018-02-27T20:39:17.347Z,41.08
2018-02-27T20:41:45.420Z,39.40
2018-02-27T20:44:12.311Z,41.13
2018-02-27T20:46:40.370Z,38.53
2018-02-27T20:49:07.261Z,43.08
2018-02-27T20:51:34.094Z,41.90
2018-02-27T20:54:01.012Z,43.80
2018-02-27T20:56:27.954Z,41.00
2018-02-27T20:58:54.783Z,39.83
2018-02-27T21:01:21.696Z,40.60
2018-02-27T21:03:48.523Z,37.30
2018-02-27T21:06:16.246Z,41.90
2018-02-27T21:08:43.212Z,41.13
2018-02-27T21:11:10.903Z,39.63
2018-02-27T21:13:37.837Z,40.80
2018-02-27T21:16:04.666Z,38.30
2018-02-27T21:18:33.808Z,38.00
2018-02-27T21:21:01.546Z,39.08
2018-02-27T21:23:28.594Z,37.67
2018-02-27T21:25:55.491Z,39.30
2018-02-27T21:28:22.547Z,37.10
2018-02-27T21:30:49.538Z,39.20
2018-02-27T21:33:16.483Z,46.65
2018-02-27T21:35:43.399Z,41.03
2018-02-27T21:38:10.254Z,36.25
2018-02-27T21:40:38.039Z,43.60
2018-02-27T21:43:04.915Z,44.30
2018-02-27T21:45:31.774Z,39.88
2018-02-27T21:47:58.651Z,46.47
2018-02-27T21:50:25.483Z,44.13
2018-02-27T21:52:52.330Z,46.00
2018-02-27T21:55:19.158Z,42.05
2018-02-27T21:57:46.006Z,44.40
2018-02-27T22:00:13.590Z,52.88
2018-02-27T22:02:40.489Z,49.25
2018-02-27T22:05:07.274Z,45.67
2018-02-27T22:07:34.217Z,44.25
2018-02-27T22:10:01.037Z,45.65
2018-02-27T22:12:28.636Z,48.00
2018-02-27T22:14:55.502Z,42.08
2018-02-27T22:17:22.458Z,44.88
2018-02-27T22:19:50.033Z,43.17
2018-02-27T22:22:17.606Z,44.30
2018-02-27T22:24:45.206Z,40.55
2018-02-27T22:27:12.103Z,40.33
2018-02-27T22:29:38.938Z,40.50
2018-02-27T22:32:05.775Z,43.13
2018-02-27T22:34:32.614Z,41.50
2018-02-27T22:36:59.433Z,42.90
2018-02-27T22:39:26.278Z,38.72
2018-02-27T22:41:53.126Z,41.30
2018-02-27T22:44:19.923Z,40.53
2018-02-27T22:46:46.747Z,39.08
2018-02-27T22:49:14.383Z,39.15
2018-02-27T22:51:41.179Z,39.15
2018-02-27T22:54:07.994Z,40.20
2018-02-27T22:56:35.578Z,38.20
2018-02-27T22:59:02.434Z,40.95
2018-02-27T23:01:29.293Z,38.40
2018-02-27T23:03:56.122Z,36.22
2018-02-27T23:06:22.966Z,36.75
2018-02-27T23:08:49.822Z,39.78
2018-02-27T23:11:16.666Z,35.78
2018-02-27T23:13:43.546Z,37.25
2018-02-27T23:16:11.147Z,33.95
2018-02-27T23:18:37.951Z,37.00
2018-02-27T23:21:05.518Z,37.35
2018-02-27T23:23:33.103Z,33.20
2018-02-27T23:28:55.713Z,30.02
2018-02-27T23:31:23.374Z,31.87
2018-02-27T23:34:04.069Z,31.37
2018-02-27T23:36:30.922Z,31.30
2018-02-27T23:38:58.466Z,31.05
2018-02-27T23:41:26.061Z,31.62
2018-02-27T23:43:52.921Z,36.22
2018-02-27T23:46:19.750Z,34.60
2018-02-27T23:48:46.601Z,34.50
2018-02-27T23:51:13.446Z,32.45
2018-02-27T23:53:40.282Z,32.00
2018-02-27T23:56:07.094Z,33.80
2018-02-27T23:58:34.690Z,33.58
